sensor_id;sensor_type;location;lat;lon;timestamp;P1;durP1;ratioP1;P2;durP2;ratioP2
51030;SDS011;37058;41.442;23.240;2022-07-03T00:01:25;35.03;;;31.40;;
51030;SDS011;37058;41.442;23.240;2022-07-03T00:03:51;33.90;;;30.10;;
51030;SDS011;37058;41.442;23.240;2022-07-03T00:06:17;32.78;;;29.17;;
51030;SDS011;37058;41.442;23.240;2022-07-03T00:08:43;29.27;;;26.35;;
51030;SDS011;37058;41.442;23.240;2022-07-03T00:11:09;26.55;;;23.90;;
51030;SDS011;37058;41.442;23.240;2022-07-03T00:13:36;24.30;;;21.90;;
51030;SDS011;37058;41.442;23.240;2022-07-03T00:16:02;23.10;;;20.80;;
51030;SDS011;37058;41.442;23.240;2022-07-03T00:18:28;22.20;;;20.17;;
51030;SDS011;37058;41.442;23.240;2022-07-03T00:21:02;18.73;;;16.80;;
51030;SDS011;37058;41.442;23.240;2022-07-03T00:23:39;20.35;;;16.15;;
51030;SDS011;37058;41.442;23.240;2022-07-03T00:26:18;17.10;;;15.07;;
51030;SDS011;37058;41.442;23.240;2022-07-03T00:28:46;15.35;;;13.95;;
51030;SDS011;37058;41.442;23.240;2022-07-03T00:31:12;15.15;;;13.75;;
51030;SDS011;37058;41.442;23.240;2022-07-03T00:33:39;14.25;;;12.85;;
51030;SDS011;37058;41.442;23.240;2022-07-03T00:36:07;14.45;;;12.95;;
51030;SDS011;37058;41.442;23.240;2022-07-03T00:38:33;12.95;;;11.75;;
51030;SDS011;37058;41.442;23.240;2022-07-03T00:41:02;14.63;;;13.23;;
51030;SDS011;37058;41.442;23.240;2022-07-03T00:43:29;17.52;;;11.95;;
51030;SDS011;37058;41.442;23.240;2022-07-03T00:45:55;13.45;;;12.07;;
51030;SDS011;37058;41.442;23.240;2022-07-03T00:48:33;13.55;;;11.93;;
51030;SDS011;37058;41.442;23.240;2022-07-03T00:51:03;14.75;;;12.20;;
51030;SDS011;37058;41.442;23.240;2022-07-03T00:53:32;13.48;;;11.75;;
51030;SDS011;37058;41.442;23.240;2022-07-03T00:56:01;13.55;;;11.65;;
51030;SDS011;37058;41.442;23.240;2022-07-03T00:58:29;13.50;;;12.20;;
51030;SDS011;37058;41.442;23.240;2022-07-03T01:00:59;15.27;;;13.68;;
51030;SDS011;37058;41.442;23.240;2022-07-03T01:03:25;15.63;;;13.80;;
51030;SDS011;37058;41.442;23.240;2022-07-03T01:05:54;15.15;;;13.50;;
51030;SDS011;37058;41.442;23.240;2022-07-03T01:08:32;13.90;;;12.50;;
51030;SDS011;37058;41.442;23.240;2022-07-03T01:30:44;21.98;;;16.88;;
51030;SDS011;37058;41.442;23.240;2022-07-03T01:33:18;20.50;;;18.48;;
51030;SDS011;37058;41.442;23.240;2022-07-03T01:38:28;20.33;;;18.33;;
51030;SDS011;37058;41.442;23.240;2022-07-03T01:40:55;23.48;;;20.98;;
51030;SDS011;37058;41.442;23.240;2022-07-03T01:43:25;26.02;;;23.50;;
51030;SDS011;37058;41.442;23.240;2022-07-03T01:45:59;30.30;;;27.33;;
51030;SDS011;37058;41.442;23.240;2022-07-03T01:48:27;31.30;;;27.95;;
51030;SDS011;37058;41.442;23.240;2022-07-03T01:50:57;31.02;;;27.83;;
51030;SDS011;37058;41.442;23.240;2022-07-03T01:53:27;39.88;;;35.90;;
51030;SDS011;37058;41.442;23.240;2022-07-03T01:55:59;46.00;;;41.40;;
51030;SDS011;37058;41.442;23.240;2022-07-03T01:58:25;47.15;;;41.13;;
51030;SDS011;37058;41.442;23.240;2022-07-03T02:01:02;41.47;;;37.20;;
51030;SDS011;37058;41.442;23.240;2022-07-03T02:03:50;43.35;;;38.95;;
51030;SDS011;37058;41.442;23.240;2022-07-03T02:06:44;44.33;;;38.65;;
51030;SDS011;37058;41.442;23.240;2022-07-03T02:09:49;47.85;;;42.28;;
51030;SDS011;37058;41.442;23.240;2022-07-03T02:12:36;46.53;;;41.60;;
51030;SDS011;37058;41.442;23.240;2022-07-03T02:15:28;46.75;;;41.75;;
51030;SDS011;37058;41.442;23.240;2022-07-03T02:17:57;47.72;;;42.88;;
51030;SDS011;37058;41.442;23.240;2022-07-03T02:20:36;47.10;;;42.03;;
51030;SDS011;37058;41.442;23.240;2022-07-03T02:23:10;50.35;;;45.05;;
51030;SDS011;37058;41.442;23.240;2022-07-03T02:25:39;47.70;;;42.97;;
51030;SDS011;37058;41.442;23.240;2022-07-03T02:28:22;55.58;;;49.78;;
51030;SDS011;37058;41.442;23.240;2022-07-03T02:31:05;49.55;;;44.20;;
51030;SDS011;37058;41.442;23.240;2022-07-03T02:33:34;50.30;;;45.00;;
51030;SDS011;37058;41.442;23.240;2022-07-03T02:36:06;49.58;;;44.55;;
51030;SDS011;37058;41.442;23.240;2022-07-03T02:38:36;49.70;;;44.42;;
51030;SDS011;37058;41.442;23.240;2022-07-03T02:41:14;46.28;;;41.45;;
51030;SDS011;37058;41.442;23.240;2022-07-03T02:46:18;42.78;;;38.55;;
51030;SDS011;37058;41.442;23.240;2022-07-03T02:55:08;42.67;;;38.28;;
51030;SDS011;37058;41.442;23.240;2022-07-03T02:58:12;42.42;;;38.03;;
51030;SDS011;37058;41.442;23.240;2022-07-03T03:06:12;40.33;;;36.10;;
51030;SDS011;37058;41.442;23.240;2022-07-03T03:08:47;40.35;;;36.05;;
51030;SDS011;37058;41.442;23.240;2022-07-03T03:11:41;34.45;;;30.85;;
51030;SDS011;37058;41.442;23.240;2022-07-03T03:14:13;38.03;;;33.05;;
51030;SDS011;37058;41.442;23.240;2022-07-03T03:16:48;37.58;;;31.67;;
51030;SDS011;37058;41.442;23.240;2022-07-03T03:19:21;35.00;;;31.35;;
51030;SDS011;37058;41.442;23.240;2022-07-03T03:21:55;32.45;;;29.25;;
51030;SDS011;37058;41.442;23.240;2022-07-03T03:24:40;36.38;;;32.45;;
51030;SDS011;37058;41.442;23.240;2022-07-03T03:27:06;37.92;;;33.00;;
51030;SDS011;37058;41.442;23.240;2022-07-03T03:29:33;65.60;;;50.70;;
51030;SDS011;37058;41.442;23.240;2022-07-03T03:31:59;109.45;;;81.53;;
51030;SDS011;37058;41.442;23.240;2022-07-03T03:34:25;51.17;;;44.70;;
51030;SDS011;37058;41.442;23.240;2022-07-03T03:36:52;140.02;;;85.55;;
51030;SDS011;37058;41.442;23.240;2022-07-03T03:39:18;352.52;;;191.57;;
51030;SDS011;37058;41.442;23.240;2022-07-03T03:41:44;305.73;;;167.13;;
51030;SDS011;37058;41.442;23.240;2022-07-03T03:44:10;239.07;;;145.05;;
51030;SDS011;37058;41.442;23.240;2022-07-03T03:46:36;39.80;;;34.67;;
51030;SDS011;37058;41.442;23.240;2022-07-03T03:49:02;40.00;;;31.95;;
51030;SDS011;37058;41.442;23.240;2022-07-03T03:51:28;34.70;;;31.00;;
51030;SDS011;37058;41.442;23.240;2022-07-03T03:53:54;36.20;;;30.60;;
51030;SDS011;37058;41.442;23.240;2022-07-03T03:56:19;253.15;;;145.50;;
51030;SDS011;37058;41.442;23.240;2022-07-03T03:58:45;86.90;;;57.42;;
51030;SDS011;37058;41.442;23.240;2022-07-03T04:01:11;60.92;;;47.45;;
51030;SDS011;37058;41.442;23.240;2022-07-03T04:03:38;32.90;;;29.45;;
51030;SDS011;37058;41.442;23.240;2022-07-03T04:06:06;80.60;;;56.95;;
51030;SDS011;37058;41.442;23.240;2022-07-03T04:08:32;54.05;;;37.67;;
51030;SDS011;37058;41.442;23.240;2022-07-03T04:10:58;29.67;;;24.38;;
51030;SDS011;37058;41.442;23.240;2022-07-03T04:13:24;28.75;;;23.23;;
51030;SDS011;37058;41.442;23.240;2022-07-03T04:15:51;28.73;;;24.20;;
51030;SDS011;37058;41.442;23.240;2022-07-03T04:18:18;30.73;;;26.10;;
51030;SDS011;37058;41.442;23.240;2022-07-03T04:20:45;31.70;;;25.58;;
51030;SDS011;37058;41.442;23.240;2022-07-03T04:23:11;45.25;;;34.05;;
51030;SDS011;37058;41.442;23.240;2022-07-03T04:25:37;69.97;;;48.35;;
51030;SDS011;37058;41.442;23.240;2022-07-03T04:28:03;32.80;;;27.58;;
51030;SDS011;37058;41.442;23.240;2022-07-03T04:30:29;28.90;;;25.90;;
51030;SDS011;37058;41.442;23.240;2022-07-03T04:32:55;45.60;;;34.80;;
51030;SDS011;37058;41.442;23.240;2022-07-03T04:35:21;47.40;;;32.60;;
51030;SDS011;37058;41.442;23.240;2022-07-03T04:37:47;49.65;;;34.22;;
51030;SDS011;37058;41.442;23.240;2022-07-03T04:40:13;48.67;;;32.95;;
51030;SDS011;37058;41.442;23.240;2022-07-03T04:42:39;31.63;;;26.65;;
51030;SDS011;37058;41.442;23.240;2022-07-03T04:45:05;24.70;;;22.25;;
51030;SDS011;37058;41.442;23.240;2022-07-03T04:47:32;24.08;;;21.40;;
51030;SDS011;37058;41.442;23.240;2022-07-03T04:49:58;21.98;;;19.77;;
51030;SDS011;37058;41.442;23.240;2022-07-03T04:52:24;26.98;;;18.70;;
51030;SDS011;37058;41.442;23.240;2022-07-03T04:54:50;23.33;;;21.02;;
51030;SDS011;37058;41.442;23.240;2022-07-03T04:57:16;25.15;;;21.95;;
51030;SDS011;37058;41.442;23.240;2022-07-03T04:59:42;23.23;;;20.75;;
51030;SDS011;37058;41.442;23.240;2022-07-03T05:02:08;24.42;;;22.05;;
51030;SDS011;37058;41.442;23.240;2022-07-03T05:04:33;25.38;;;21.40;;
51030;SDS011;37058;41.442;23.240;2022-07-03T05:06:59;25.63;;;23.13;;
51030;SDS011;37058;41.442;23.240;2022-07-03T05:09:25;28.38;;;25.33;;
51030;SDS011;37058;41.442;23.240;2022-07-03T05:11:51;29.50;;;26.40;;
51030;SDS011;37058;41.442;23.240;2022-07-03T05:14:17;28.13;;;25.33;;
51030;SDS011;37058;41.442;23.240;2022-07-03T05:16:43;27.40;;;24.75;;
51030;SDS011;37058;41.442;23.240;2022-07-03T05:19:09;29.67;;;26.67;;
51030;SDS011;37058;41.442;23.240;2022-07-03T05:21:35;26.77;;;24.23;;
51030;SDS011;37058;41.442;23.240;2022-07-03T05:24:01;27.15;;;24.40;;
51030;SDS011;37058;41.442;23.240;2022-07-03T05:26:28;23.88;;;21.67;;
51030;SDS011;37058;41.442;23.240;2022-07-03T05:28:54;25.55;;;22.77;;
51030;SDS011;37058;41.442;23.240;2022-07-03T05:31:19;24.08;;;21.58;;
51030;SDS011;37058;41.442;23.240;2022-07-03T05:33:45;23.27;;;21.05;;
51030;SDS011;37058;41.442;23.240;2022-07-03T05:36:11;24.50;;;22.10;;
51030;SDS011;37058;41.442;23.240;2022-07-03T05:38:37;22.42;;;20.20;;
51030;SDS011;37058;41.442;23.240;2022-07-03T05:41:22;23.75;;;20.83;;
51030;SDS011;37058;41.442;23.240;2022-07-03T05:43:47;22.65;;;20.25;;
51030;SDS011;37058;41.442;23.240;2022-07-03T05:46:14;19.83;;;17.23;;
51030;SDS011;37058;41.442;23.240;2022-07-03T05:48:40;13.73;;;12.40;;
51030;SDS011;37058;41.442;23.240;2022-07-03T05:51:06;14.35;;;12.85;;
51030;SDS011;37058;41.442;23.240;2022-07-03T05:53:32;22.55;;;20.17;;
51030;SDS011;37058;41.442;23.240;2022-07-03T05:55:57;22.67;;;18.20;;
51030;SDS011;37058;41.442;23.240;2022-07-03T05:58:23;20.45;;;16.60;;
51030;SDS011;37058;41.442;23.240;2022-07-03T06:00:49;22.00;;;17.67;;
51030;SDS011;37058;41.442;23.240;2022-07-03T06:03:15;40.05;;;26.00;;
51030;SDS011;37058;41.442;23.240;2022-07-03T06:05:41;17.88;;;15.55;;
51030;SDS011;37058;41.442;23.240;2022-07-03T06:08:07;16.15;;;13.57;;
51030;SDS011;37058;41.442;23.240;2022-07-03T06:10:33;14.30;;;12.80;;
51030;SDS011;37058;41.442;23.240;2022-07-03T06:12:59;21.63;;;16.60;;
51030;SDS011;37058;41.442;23.240;2022-07-03T06:15:25;20.80;;;16.45;;
51030;SDS011;37058;41.442;23.240;2022-07-03T06:17:51;30.30;;;24.27;;
51030;SDS011;37058;41.442;23.240;2022-07-03T06:20:17;21.83;;;19.60;;
51030;SDS011;37058;41.442;23.240;2022-07-03T06:22:43;14.57;;;13.07;;
51030;SDS011;37058;41.442;23.240;2022-07-03T06:25:10;14.05;;;12.00;;
51030;SDS011;37058;41.442;23.240;2022-07-03T06:27:36;23.75;;;13.57;;
51030;SDS011;37058;41.442;23.240;2022-07-03T06:30:03;12.55;;;11.23;;
51030;SDS011;37058;41.442;23.240;2022-07-03T06:32:29;16.70;;;12.27;;
51030;SDS011;37058;41.442;23.240;2022-07-03T06:34:55;14.13;;;12.02;;
51030;SDS011;37058;41.442;23.240;2022-07-03T06:37:21;15.27;;;11.82;;
51030;SDS011;37058;41.442;23.240;2022-07-03T06:39:47;15.95;;;11.48;;
51030;SDS011;37058;41.442;23.240;2022-07-03T06:42:13;13.48;;;12.18;;
51030;SDS011;37058;41.442;23.240;2022-07-03T06:44:39;13.52;;;12.13;;
51030;SDS011;37058;41.442;23.240;2022-07-03T06:47:06;13.40;;;11.18;;
51030;SDS011;37058;41.442;23.240;2022-07-03T06:49:33;17.63;;;12.60;;
51030;SDS011;37058;41.442;23.240;2022-07-03T06:51:59;13.05;;;11.77;;
51030;SDS011;37058;41.442;23.240;2022-07-03T06:54:25;14.65;;;12.27;;
51030;SDS011;37058;41.442;23.240;2022-07-03T06:56:51;12.07;;;10.63;;
51030;SDS011;37058;41.442;23.240;2022-07-03T06:59:18;13.50;;;11.63;;
51030;SDS011;37058;41.442;23.240;2022-07-03T07:01:44;12.70;;;10.63;;
51030;SDS011;37058;41.442;23.240;2022-07-03T07:04:10;11.93;;;10.60;;
51030;SDS011;37058;41.442;23.240;2022-07-03T07:06:36;12.32;;;11.02;;
51030;SDS011;37058;41.442;23.240;2022-07-03T07:09:03;11.43;;;9.98;;
51030;SDS011;37058;41.442;23.240;2022-07-03T07:11:30;11.53;;;10.40;;
51030;SDS011;37058;41.442;23.240;2022-07-03T07:13:56;11.77;;;10.68;;
51030;SDS011;37058;41.442;23.240;2022-07-03T07:16:22;12.35;;;10.85;;
51030;SDS011;37058;41.442;23.240;2022-07-03T07:18:48;13.70;;;10.60;;
51030;SDS011;37058;41.442;23.240;2022-07-03T07:21:14;14.45;;;11.18;;
51030;SDS011;37058;41.442;23.240;2022-07-03T07:23:40;14.20;;;10.30;;
51030;SDS011;37058;41.442;23.240;2022-07-03T07:26:05;15.93;;;10.68;;
51030;SDS011;37058;41.442;23.240;2022-07-03T07:28:32;14.75;;;11.10;;
51030;SDS011;37058;41.442;23.240;2022-07-03T07:31:00;11.30;;;10.20;;
51030;SDS011;37058;41.442;23.240;2022-07-03T07:33:27;15.75;;;10.70;;
51030;SDS011;37058;41.442;23.240;2022-07-03T07:35:53;17.38;;;11.70;;
51030;SDS011;37058;41.442;23.240;2022-07-03T07:38:19;11.90;;;9.43;;
51030;SDS011;37058;41.442;23.240;2022-07-03T07:40:45;13.32;;;10.15;;
51030;SDS011;37058;41.442;23.240;2022-07-03T07:43:12;20.35;;;11.30;;
51030;SDS011;37058;41.442;23.240;2022-07-03T07:45:38;12.50;;;10.35;;
51030;SDS011;37058;41.442;23.240;2022-07-03T07:48:04;14.60;;;11.45;;
51030;SDS011;37058;41.442;23.240;2022-07-03T07:50:31;14.27;;;10.52;;
51030;SDS011;37058;41.442;23.240;2022-07-03T07:52:57;11.77;;;10.68;;
51030;SDS011;37058;41.442;23.240;2022-07-03T07:55:23;14.13;;;11.02;;
51030;SDS011;37058;41.442;23.240;2022-07-03T07:57:50;15.38;;;10.85;;
51030;SDS011;37058;41.442;23.240;2022-07-03T08:00:17;11.90;;;10.70;;
51030;SDS011;37058;41.442;23.240;2022-07-03T08:02:46;16.25;;;10.32;;
51030;SDS011;37058;41.442;23.240;2022-07-03T08:05:30;10.38;;;9.38;;
51030;SDS011;37058;41.442;23.240;2022-07-03T08:08:10;11.77;;;10.05;;
51030;SDS011;37058;41.442;23.240;2022-07-03T08:10:45;11.15;;;10.02;;
51030;SDS011;37058;41.442;23.240;2022-07-03T08:13:14;20.02;;;14.77;;
51030;SDS011;37058;41.442;23.240;2022-07-03T08:15:42;15.30;;;11.25;;
51030;SDS011;37058;41.442;23.240;2022-07-03T08:18:09;12.43;;;10.70;;
51030;SDS011;37058;41.442;23.240;2022-07-03T08:20:36;11.05;;;9.95;;
51030;SDS011;37058;41.442;23.240;2022-07-03T08:23:02;9.18;;;8.27;;
51030;SDS011;37058;41.442;23.240;2022-07-03T08:25:29;13.75;;;9.30;;
51030;SDS011;37058;41.442;23.240;2022-07-03T08:27:56;13.10;;;9.57;;
51030;SDS011;37058;41.442;23.240;2022-07-03T08:30:23;13.30;;;9.98;;
51030;SDS011;37058;41.442;23.240;2022-07-03T08:32:50;10.73;;;9.32;;
51030;SDS011;37058;41.442;23.240;2022-07-03T08:37:44;9.57;;;8.63;;
51030;SDS011;37058;41.442;23.240;2022-07-03T08:40:13;14.32;;;9.73;;
51030;SDS011;37058;41.442;23.240;2022-07-03T08:42:46;13.80;;;8.63;;
51030;SDS011;37058;41.442;23.240;2022-07-03T08:45:15;9.82;;;8.48;;
51030;SDS011;37058;41.442;23.240;2022-07-03T08:50:14;24.92;;;8.73;;
51030;SDS011;37058;41.442;23.240;2022-07-03T08:52:43;11.10;;;8.25;;
51030;SDS011;37058;41.442;23.240;2022-07-03T08:55:10;9.68;;;8.65;;
51030;SDS011;37058;41.442;23.240;2022-07-03T08:57:38;9.95;;;8.95;;
51030;SDS011;37058;41.442;23.240;2022-07-03T09:00:07;10.57;;;8.30;;
51030;SDS011;37058;41.442;23.240;2022-07-03T09:02:38;11.27;;;9.07;;
51030;SDS011;37058;41.442;23.240;2022-07-03T09:05:07;11.65;;;7.88;;
51030;SDS011;37058;41.442;23.240;2022-07-03T09:07:37;8.95;;;7.80;;
51030;SDS011;37058;41.442;23.240;2022-07-03T09:10:08;10.07;;;8.20;;
51030;SDS011;37058;41.442;23.240;2022-07-03T09:12:37;8.77;;;7.65;;
51030;SDS011;37058;41.442;23.240;2022-07-03T09:15:04;11.07;;;7.72;;
51030;SDS011;37058;41.442;23.240;2022-07-03T09:17:33;11.43;;;7.82;;
51030;SDS011;37058;41.442;23.240;2022-07-03T09:20:00;12.15;;;9.35;;
51030;SDS011;37058;41.442;23.240;2022-07-03T09:22:29;8.50;;;7.47;;
51030;SDS011;37058;41.442;23.240;2022-07-03T09:27:33;9.73;;;7.72;;
51030;SDS011;37058;41.442;23.240;2022-07-03T09:30:13;9.45;;;8.32;;
51030;SDS011;37058;41.442;23.240;2022-07-03T09:37:52;10.77;;;7.05;;
51030;SDS011;37058;41.442;23.240;2022-07-03T09:40:49;8.38;;;7.15;;
51030;SDS011;37058;41.442;23.240;2022-07-03T09:43:22;11.27;;;7.72;;
51030;SDS011;37058;41.442;23.240;2022-07-03T09:46:02;8.32;;;7.43;;
51030;SDS011;37058;41.442;23.240;2022-07-03T09:48:29;7.93;;;7.22;;
51030;SDS011;37058;41.442;23.240;2022-07-03T09:51:19;10.25;;;6.93;;
51030;SDS011;37058;41.442;23.240;2022-07-03T09:53:57;11.60;;;7.20;;
51030;SDS011;37058;41.442;23.240;2022-07-03T09:56:27;7.88;;;7.18;;
51030;SDS011;37058;41.442;23.240;2022-07-03T09:59:02;9.48;;;7.10;;
51030;SDS011;37058;41.442;23.240;2022-07-03T10:01:40;8.60;;;6.82;;
51030;SDS011;37058;41.442;23.240;2022-07-03T10:04:29;7.97;;;7.18;;
51030;SDS011;37058;41.442;23.240;2022-07-03T10:06:55;8.27;;;6.60;;
51030;SDS011;37058;41.442;23.240;2022-07-03T10:09:27;8.52;;;7.07;;
51030;SDS011;37058;41.442;23.240;2022-07-03T10:11:56;15.05;;;6.10;;
51030;SDS011;37058;41.442;23.240;2022-07-03T10:14:24;7.95;;;6.53;;
51030;SDS011;37058;41.442;23.240;2022-07-03T10:16:53;10.05;;;6.20;;
51030;SDS011;37058;41.442;23.240;2022-07-03T10:21:53;9.48;;;6.28;;
51030;SDS011;37058;41.442;23.240;2022-07-03T10:24:28;7.82;;;6.22;;
51030;SDS011;37058;41.442;23.240;2022-07-03T10:26:56;9.05;;;6.43;;
51030;SDS011;37058;41.442;23.240;2022-07-03T10:29:25;10.95;;;6.18;;
51030;SDS011;37058;41.442;23.240;2022-07-03T10:31:53;6.57;;;5.70;;
51030;SDS011;37058;41.442;23.240;2022-07-03T10:34:20;6.75;;;6.15;;
51030;SDS011;37058;41.442;23.240;2022-07-03T10:36:58;7.95;;;6.13;;
51030;SDS011;37058;41.442;23.240;2022-07-03T10:42:43;9.27;;;6.20;;
51030;SDS011;37058;41.442;23.240;2022-07-03T10:45:31;9.35;;;5.85;;
51030;SDS011;37058;41.442;23.240;2022-07-03T10:47:57;8.10;;;5.95;;
51030;SDS011;37058;41.442;23.240;2022-07-03T10:50:23;10.63;;;6.15;;
51030;SDS011;37058;41.442;23.240;2022-07-03T10:52:49;7.00;;;6.00;;
51030;SDS011;37058;41.442;23.240;2022-07-03T10:55:16;7.20;;;6.50;;
51030;SDS011;37058;41.442;23.240;2022-07-03T10:58:06;8.13;;;6.20;;
51030;SDS011;37058;41.442;23.240;2022-07-03T11:00:53;7.25;;;6.53;;
51030;SDS011;37058;41.442;23.240;2022-07-03T11:06:20;8.15;;;5.55;;
51030;SDS011;37058;41.442;23.240;2022-07-03T11:09:13;7.30;;;6.00;;
51030;SDS011;37058;41.442;23.240;2022-07-03T11:11:40;8.90;;;5.78;;
51030;SDS011;37058;41.442;23.240;2022-07-03T11:14:24;5.70;;;5.20;;
51030;SDS011;37058;41.442;23.240;2022-07-03T11:19:44;7.40;;;5.40;;
51030;SDS011;37058;41.442;23.240;2022-07-03T11:22:53;9.82;;;7.38;;
51030;SDS011;37058;41.442;23.240;2022-07-03T11:25:24;7.30;;;5.35;;
51030;SDS011;37058;41.442;23.240;2022-07-03T11:27:50;9.13;;;5.70;;
51030;SDS011;37058;41.442;23.240;2022-07-03T11:30:18;6.57;;;5.28;;
51030;SDS011;37058;41.442;23.240;2022-07-03T11:32:47;6.72;;;5.25;;
51030;SDS011;37058;41.442;23.240;2022-07-03T11:38:16;6.68;;;5.97;;
51030;SDS011;37058;41.442;23.240;2022-07-03T11:40:48;7.65;;;5.43;;
51030;SDS011;37058;41.442;23.240;2022-07-03T11:43:17;7.80;;;5.13;;
51030;SDS011;37058;41.442;23.240;2022-07-03T11:45:44;6.45;;;5.53;;
51030;SDS011;37058;41.442;23.240;2022-07-03T11:48:13;8.00;;;6.05;;
51030;SDS011;37058;41.442;23.240;2022-07-03T11:50:42;10.30;;;5.00;;
51030;SDS011;37058;41.442;23.240;2022-07-03T11:56:07;7.25;;;5.28;;
51030;SDS011;37058;41.442;23.240;2022-07-03T11:58:41;5.90;;;5.07;;
51030;SDS011;37058;41.442;23.240;2022-07-03T12:01:37;6.45;;;5.43;;
51030;SDS011;37058;41.442;23.240;2022-07-03T12:06:44;6.93;;;4.65;;
51030;SDS011;37058;41.442;23.240;2022-07-03T12:09:21;8.35;;;5.60;;
51030;SDS011;37058;41.442;23.240;2022-07-03T12:12:01;7.82;;;4.97;;
51030;SDS011;37058;41.442;23.240;2022-07-03T12:17:07;6.25;;;4.82;;
51030;SDS011;37058;41.442;23.240;2022-07-03T12:19:49;7.18;;;5.07;;
51030;SDS011;37058;41.442;23.240;2022-07-03T12:22:24;6.53;;;4.78;;
51030;SDS011;37058;41.442;23.240;2022-07-03T12:25:09;6.10;;;4.72;;
51030;SDS011;37058;41.442;23.240;2022-07-03T12:27:41;6.53;;;5.80;;
51030;SDS011;37058;41.442;23.240;2022-07-03T12:30:10;5.45;;;4.95;;
51030;SDS011;37058;41.442;23.240;2022-07-03T12:32:52;7.05;;;5.28;;
51030;SDS011;37058;41.442;23.240;2022-07-03T12:35:22;5.32;;;4.82;;
51030;SDS011;37058;41.442;23.240;2022-07-03T12:37:50;6.05;;;4.90;;
51030;SDS011;37058;41.442;23.240;2022-07-03T12:40:15;6.50;;;4.82;;
51030;SDS011;37058;41.442;23.240;2022-07-03T12:42:55;5.82;;;4.75;;
51030;SDS011;37058;41.442;23.240;2022-07-03T12:47:59;7.18;;;5.20;;
51030;SDS011;37058;41.442;23.240;2022-07-03T12:50:47;8.35;;;5.38;;
51030;SDS011;37058;41.442;23.240;2022-07-03T12:53:27;7.43;;;5.13;;
51030;SDS011;37058;41.442;23.240;2022-07-03T12:55:59;7.70;;;5.33;;
51030;SDS011;37058;41.442;23.240;2022-07-03T12:58:30;6.72;;;5.00;;
51030;SDS011;37058;41.442;23.240;2022-07-03T13:01:25;6.05;;;5.45;;
51030;SDS011;37058;41.442;23.240;2022-07-03T13:03:58;10.48;;;6.03;;
51030;SDS011;37058;41.442;23.240;2022-07-03T13:06:25;7.50;;;5.90;;
51030;SDS011;37058;41.442;23.240;2022-07-03T13:08:52;8.80;;;5.57;;
51030;SDS011;37058;41.442;23.240;2022-07-03T13:11:33;7.15;;;6.07;;
51030;SDS011;37058;41.442;23.240;2022-07-03T13:14:09;7.07;;;6.32;;
51030;SDS011;37058;41.442;23.240;2022-07-03T13:16:58;6.28;;;5.68;;
51030;SDS011;37058;41.442;23.240;2022-07-03T13:19:25;7.60;;;6.10;;
51030;SDS011;37058;41.442;23.240;2022-07-03T13:24:20;9.88;;;8.40;;
51030;SDS011;37058;41.442;23.240;2022-07-03T13:26:47;12.68;;;9.30;;
51030;SDS011;37058;41.442;23.240;2022-07-03T13:29:15;9.23;;;7.65;;
51030;SDS011;37058;41.442;23.240;2022-07-03T13:31:42;7.60;;;5.55;;
51030;SDS011;37058;41.442;23.240;2022-07-03T13:34:08;6.95;;;5.78;;
51030;SDS011;37058;41.442;23.240;2022-07-03T13:36:34;8.25;;;6.45;;
51030;SDS011;37058;41.442;23.240;2022-07-03T13:39:00;6.10;;;5.50;;
51030;SDS011;37058;41.442;23.240;2022-07-03T13:41:26;7.95;;;5.75;;
51030;SDS011;37058;41.442;23.240;2022-07-03T13:43:52;6.25;;;5.00;;
51030;SDS011;37058;41.442;23.240;2022-07-03T13:46:19;7.90;;;6.05;;
51030;SDS011;37058;41.442;23.240;2022-07-03T13:48:47;7.18;;;6.15;;
51030;SDS011;37058;41.442;23.240;2022-07-03T13:51:14;10.05;;;6.72;;
51030;SDS011;37058;41.442;23.240;2022-07-03T13:53:40;8.02;;;5.47;;
51030;SDS011;37058;41.442;23.240;2022-07-03T13:56:06;6.68;;;6.05;;
51030;SDS011;37058;41.442;23.240;2022-07-03T13:58:32;7.38;;;6.20;;
51030;SDS011;37058;41.442;23.240;2022-07-03T14:00:58;6.50;;;5.90;;
51030;SDS011;37058;41.442;23.240;2022-07-03T14:03:25;9.82;;;5.70;;
51030;SDS011;37058;41.442;23.240;2022-07-03T14:05:51;8.15;;;5.72;;
51030;SDS011;37058;41.442;23.240;2022-07-03T14:08:17;6.80;;;5.88;;
51030;SDS011;37058;41.442;23.240;2022-07-03T14:10:44;6.73;;;5.57;;
51030;SDS011;37058;41.442;23.240;2022-07-03T14:13:11;10.27;;;5.80;;
51030;SDS011;37058;41.442;23.240;2022-07-03T14:15:37;12.43;;;6.20;;
51030;SDS011;37058;41.442;23.240;2022-07-03T14:18:03;8.82;;;6.35;;
51030;SDS011;37058;41.442;23.240;2022-07-03T14:20:29;7.50;;;5.65;;
51030;SDS011;37058;41.442;23.240;2022-07-03T14:22:55;6.43;;;5.75;;
51030;SDS011;37058;41.442;23.240;2022-07-03T14:25:21;6.50;;;5.32;;
51030;SDS011;37058;41.442;23.240;2022-07-03T14:27:47;6.50;;;5.90;;
51030;SDS011;37058;41.442;23.240;2022-07-03T14:30:32;6.53;;;5.60;;
51030;SDS011;37058;41.442;23.240;2022-07-03T14:33:16;6.60;;;5.47;;
51030;SDS011;37058;41.442;23.240;2022-07-03T14:35:42;8.90;;;5.95;;
51030;SDS011;37058;41.442;23.240;2022-07-03T14:38:08;7.75;;;5.82;;
51030;SDS011;37058;41.442;23.240;2022-07-03T14:40:34;9.00;;;5.93;;
51030;SDS011;37058;41.442;23.240;2022-07-03T14:43:00;6.63;;;5.60;;
51030;SDS011;37058;41.442;23.240;2022-07-03T14:45:26;9.48;;;6.35;;
51030;SDS011;37058;41.442;23.240;2022-07-03T14:47:52;7.72;;;5.70;;
51030;SDS011;37058;41.442;23.240;2022-07-03T14:50:18;7.72;;;5.75;;
51030;SDS011;37058;41.442;23.240;2022-07-03T14:52:44;6.82;;;5.57;;
51030;SDS011;37058;41.442;23.240;2022-07-03T15:09:46;9.02;;;7.07;;
51030;SDS011;37058;41.442;23.240;2022-07-03T15:12:31;6.45;;;5.85;;
51030;SDS011;37058;41.442;23.240;2022-07-03T15:15:01;8.65;;;6.05;;
51030;SDS011;37058;41.442;23.240;2022-07-03T15:17:28;8.98;;;6.70;;
51030;SDS011;37058;41.442;23.240;2022-07-03T15:19:55;10.43;;;6.28;;
51030;SDS011;37058;41.442;23.240;2022-07-03T15:22:23;12.77;;;6.32;;
51030;SDS011;37058;41.442;23.240;2022-07-03T15:24:51;9.85;;;6.65;;
51030;SDS011;37058;41.442;23.240;2022-07-03T15:27:19;6.05;;;5.45;;
51030;SDS011;37058;41.442;23.240;2022-07-03T15:29:47;8.13;;;6.78;;
51030;SDS011;37058;41.442;23.240;2022-07-03T15:32:14;6.88;;;5.68;;
51030;SDS011;37058;41.442;23.240;2022-07-03T15:34:43;9.18;;;6.35;;
51030;SDS011;37058;41.442;23.240;2022-07-03T15:45:22;9.05;;;7.55;;
51030;SDS011;37058;41.442;23.240;2022-07-03T15:53:43;14.13;;;10.00;;
51030;SDS011;37058;41.442;23.240;2022-07-03T15:56:13;15.02;;;8.32;;
51030;SDS011;37058;41.442;23.240;2022-07-03T15:58:49;11.50;;;8.10;;
51030;SDS011;37058;41.442;23.240;2022-07-03T16:01:19;15.73;;;7.20;;
51030;SDS011;37058;41.442;23.240;2022-07-03T16:04:18;9.95;;;6.10;;
51030;SDS011;37058;41.442;23.240;2022-07-03T16:06:59;9.65;;;7.22;;
51030;SDS011;37058;41.442;23.240;2022-07-03T16:09:27;7.63;;;6.93;;
51030;SDS011;37058;41.442;23.240;2022-07-03T16:11:53;8.82;;;6.80;;
51030;SDS011;37058;41.442;23.240;2022-07-03T16:14:19;10.05;;;7.47;;
51030;SDS011;37058;41.442;23.240;2022-07-03T16:16:45;11.82;;;10.82;;
51030;SDS011;37058;41.442;23.240;2022-07-03T16:19:12;12.60;;;9.20;;
51030;SDS011;37058;41.442;23.240;2022-07-03T16:21:38;7.93;;;7.13;;